Time;durP1;ratioP1;P1;durP2;ratioP2;P2;SDS_P1;SDS_P2;PMS_P1;PMS_P2;Temp;Humidity;BMP_temperature;BMP_pressure;BME280_temperature;BME280_humidity;BME280_pressure;Samples;Min_cycle;Max_cycle;Signal;HPM_P1;HPM_P2
2021/09/17 04:01:35;;;;;;;3.27;1.27;;;14.80;99.90;;;;;;5450762;23;20578;-71
2021/09/17 04:04:02;;;;;;;1.50;1.50;;;14.70;99.90;;;;;;4973530;28;20459;-72
2021/09/17 04:06:28;;;;;;;3.33;1.50;;;14.70;99.90;;;;;;4967262;28;21026;-72
2021/09/17 04:08:55;;;;;;;3.00;1.20;;;14.70;99.90;;;;;;4974377;28;20518;-73
2021/09/17 04:11:22;;;;;;;1.27;1.17;;;14.70;99.90;;;;;;4962389;28;20527;-73
2021/09/17 04:13:48;;;;;;;2.03;1.30;;;14.70;99.90;;;;;;4954754;28;20469;-73
2021/09/17 04:16:15;;;;;;;2.00;1.10;;;14.70;99.90;;;;;;4960209;28;20559;-74
2021/09/17 04:18:43;;;;;;;1.20;1.03;;;14.70;99.90;;;;;;4956228;28;20512;-74
2021/09/17 04:21:10;;;;;;;1.23;0.97;;;14.70;99.90;;;;;;4967069;28;20831;-74
2021/09/17 04:23:36;;;;;;;2.00;0.90;;;14.70;99.90;;;;;;4974125;28;20467;-74
2021/09/17 04:26:03;;;;;;;1.43;0.80;;;14.60;99.90;;;;;;4962189;28;20550;-74
2021/09/17 04:28:29;;;;;;;1.20;1.00;;;14.60;99.90;;;;;;4955015;28;20520;-73
2021/09/17 04:30:56;;;;;;;2.70;1.07;;;14.60;99.90;;;;;;4964010;28;20484;-73
2021/09/17 04:33:23;;;;;;;2.13;0.83;;;14.60;99.90;;;;;;4973642;28;20464;-74
2021/09/17 04:35:51;;;;;;;3.60;1.33;;;14.60;99.90;;;;;;4971350;28;20460;-74
2021/09/17 04:38:17;;;;;;;3.00;0.83;;;14.60;99.90;;;;;;4955509;28;20532;-72
2021/09/17 04:40:44;;;;;;;2.07;0.90;;;14.60;99.90;;;;;;4966291;28;20483;-72
2021/09/17 04:43:11;;;;;;;3.07;1.10;;;14.60;99.90;;;;;;4973086;28;20498;-74
2021/09/17 04:45:38;;;;;;;1.27;1.10;;;14.60;99.90;;;;;;4961409;28;20539;-74
2021/09/17 04:48:09;;;;;;;2.87;1.00;;;14.60;99.90;;;;;;4954994;28;20535;-74
2021/09/17 04:50:36;;;;;;;1.77;1.20;;;14.60;99.90;;;;;;4964091;28;20487;-73
2021/09/17 04:53:04;;;;;;;2.80;1.20;;;14.60;99.90;;;;;;4959508;28;20519;-74
2021/09/17 04:55:31;;;;;;;2.00;0.90;;;14.60;99.90;;;;;;4963323;28;20463;-73
2021/09/17 04:58:01;;;;;;;2.40;1.00;;;14.60;99.90;;;;;;4973766;28;20808;-75
2021/09/17 05:00:28;;;;;;;4.53;1.27;;;14.60;99.90;;;;;;4966748;28;20601;-74
2021/09/17 05:02:55;;;;;;;1.43;0.83;;;14.60;99.90;;;;;;4965702;28;20871;-74
2021/09/17 05:05:22;;;;;;;0.73;0.73;;;14.60;99.90;;;;;;4954659;28;20942;-74
2021/09/17 05:07:48;;;;;;;1.57;0.70;;;14.60;99.90;;;;;;4954857;28;20509;-74
2021/09/17 05:10:17;;;;;;;0.97;0.97;;;14.60;99.90;;;;;;4954523;28;20500;-74
2021/09/17 05:12:43;;;;;;;1.03;0.93;;;14.60;99.90;;;;;;4958871;28;20463;-74
2021/09/17 05:15:11;;;;;;;1.90;0.90;;;14.60;99.90;;;;;;4973569;28;20510;-74
2021/09/17 05:17:37;;;;;;;1.60;0.90;;;14.60;99.90;;;;;;4969604;28;20519;-73
2021/09/17 05:20:05;;;;;;;3.00;1.03;;;14.60;99.90;;;;;;4954912;28;20515;-73
2021/09/17 05:22:31;;;;;;;1.17;0.90;;;14.60;99.90;;;;;;4956586;28;20503;-73
2021/09/17 05:24:58;;;;;;;1.50;1.10;;;14.60;99.90;;;;;;4973748;28;20456;-74
2021/09/17 05:27:26;;;;;;;1.30;1.30;;;14.60;99.90;;;;;;4971563;28;20518;-73
2021/09/17 05:29:53;;;;;;;1.00;1.00;;;14.70;99.90;;;;;;4957888;28;20462;-73
2021/09/17 05:32:20;;;;;;;0.90;0.90;;;14.60;99.90;;;;;;4958274;28;20492;-72
2021/09/17 05:34:47;;;;;;;0.77;0.60;;;14.60;99.90;;;;;;4971780;28;20526;-74
2021/09/17 05:37:14;;;;;;;2.67;1.20;;;14.60;99.90;;;;;;4973402;28;20460;-74
2021/09/17 05:39:40;;;;;;;1.17;0.70;;;14.60;99.90;;;;;;4955465;28;20496;-73
2021/09/17 05:42:07;;;;;;;0.80;0.80;;;14.70;99.90;;;;;;4953309;28;20481;-73
2021/09/17 05:44:35;;;;;;;2.20;0.80;;;14.70;99.90;;;;;;4967821;28;20456;-73
2021/09/17 05:47:02;;;;;;;0.97;0.97;;;14.70;99.90;;;;;;4972371;28;20559;-71
2021/09/17 05:49:28;;;;;;;0.50;0.50;;;14.70;99.90;;;;;;4968637;28;20468;-71
2021/09/17 05:51:55;;;;;;;0.83;0.80;;;14.70;99.90;;;;;;4972755;28;20952;-71
2021/09/17 05:54:22;;;;;;;0.90;0.63;;;14.70;99.90;;;;;;4958888;28;20511;-71
2021/09/17 05:56:49;;;;;;;1.23;1.13;;;14.70;99.90;;;;;;4953423;28;20468;-74
2021/09/17 05:59:15;;;;;;;1.90;0.93;;;14.70;99.90;;;;;;4969100;28;20534;-74
2021/09/17 06:01:43;;;;;;;1.23;1.00;;;14.70;99.90;;;;;;4968518;28;20524;-73
2021/09/17 06:04:10;;;;;;;0.40;0.40;;;14.70;99.90;;;;;;4957402;28;20476;-74
2021/09/17 06:06:37;;;;;;;0.57;0.50;;;14.70;99.90;;;;;;4959378;28;20492;-74
2021/09/17 06:09:03;;;;;;;0.50;0.50;;;14.70;99.90;;;;;;4975775;28;20886;-74
2021/09/17 06:11:30;;;;;;;1.47;0.40;;;14.70;99.90;;;;;;4962085;28;20964;-74
2021/09/17 06:13:57;;;;;;;0.93;0.50;;;14.70;99.90;;;;;;4956252;28;20527;-74
2021/09/17 06:16:23;;;;;;;0.30;0.30;;;14.70;99.90;;;;;;4968356;28;20467;-73
2021/09/17 06:18:51;;;;;;;0.30;0.30;;;14.70;99.90;;;;;;4958116;28;20460;-76
2021/09/17 06:21:18;;;;;;;0.43;0.43;;;14.80;99.90;;;;;;4956061;28;20497;-74
2021/09/17 06:23:45;;;;;;;1.13;0.90;;;14.80;99.90;;;;;;4956226;28;20554;-74
2021/09/17 06:26:12;;;;;;;0.40;0.30;;;14.80;99.90;;;;;;4956665;28;20484;-75
2021/09/17 06:28:39;;;;;;;1.20;0.40;;;14.80;99.90;;;;;;4956474;28;20527;-73
2021/09/17 06:31:05;;;;;;;0.93;0.20;;;14.90;99.90;;;;;;4956913;28;20528;-73
2021/09/17 06:33:32;;;;;;;1.33;0.33;;;14.80;99.90;;;;;;4963948;28;20463;-73
2021/09/17 06:36:00;;;;;;;0.87;0.27;;;14.90;99.90;;;;;;4976946;28;20502;-73
2021/09/17 06:38:27;;;;;;;0.30;0.20;;;14.90;99.90;;;;;;4959012;28;20461;-74
2021/09/17 06:40:53;;;;;;;0.30;0.30;;;14.90;99.90;;;;;;4956575;28;20500;-73
2021/09/17 06:43:20;;;;;;;0.40;0.40;;;14.90;99.90;;;;;;4958155;28;20559;-74
2021/09/17 06:45:47;;;;;;;0.30;0.30;;;15.00;99.90;;;;;;4956044;28;20539;-74
2021/09/17 06:48:13;;;;;;;1.03;0.37;;;15.00;99.90;;;;;;4958291;28;20465;-74
2021/09/17 06:50:40;;;;;;;0.83;0.30;;;15.10;99.90;;;;;;4956370;28;20568;-74
2021/09/17 06:53:08;;;;;;;0.20;0.20;;;15.00;99.90;;;;;;4958492;28;20460;-73
2021/09/17 06:55:35;;;;;;;0.40;0.30;;;15.10;99.90;;;;;;4964425;28;20468;-72
2021/09/17 06:58:04;;;;;;;0.63;0.37;;;15.10;99.90;;;;;;4975785;28;20866;-71
2021/09/17 07:00:32;;;;;;;0.20;0.20;;;15.10;99.90;;;;;;4974175;28;20636;-70
2021/09/17 07:03:00;;;;;;;0.40;0.30;;;15.10;99.90;;;;;;4962243;28;20512;-70
2021/09/17 07:05:28;;;;;;;0.30;0.30;;;15.10;99.90;;;;;;4956341;28;20476;-71
2021/09/17 07:08:01;;;;;;;0.87;0.40;;;15.10;99.90;;;;;;4966928;28;20622;-71
2021/09/17 07:10:29;;;;;;;1.43;0.20;;;15.20;99.90;;;;;;4975636;28;20484;-70
2021/09/17 07:12:56;;;;;;;0.73;0.20;;;15.30;99.90;;;;;;4959632;28;20460;-70
2021/09/17 07:15:23;;;;;;;0.40;0.33;;;15.30;99.90;;;;;;4966567;28;20483;-70
2021/09/17 07:17:50;;;;;;;1.50;0.47;;;15.30;99.90;;;;;;4975318;28;20455;-70
2021/09/17 07:20:17;;;;;;;1.70;0.40;;;15.40;99.90;;;;;;4964950;28;20468;-70
2021/09/17 07:22:43;;;;;;;0.77;0.40;;;15.50;99.90;;;;;;4956018;28;20457;-70
2021/09/17 07:25:11;;;;;;;0.63;0.40;;;15.60;99.90;;;;;;4963968;28;20468;-70
2021/09/17 07:27:39;;;;;;;0.30;0.27;;;15.60;99.90;;;;;;4973776;28;20543;-70
2021/09/17 07:30:07;;;;;;;0.67;0.30;;;15.70;99.90;;;;;;4973976;28;20479;-71
2021/09/17 07:32:34;;;;;;;1.10;0.40;;;15.70;99.90;;;;;;4966691;28;20473;-70
2021/09/17 07:35:01;;;;;;;0.37;0.37;;;15.80;99.90;;;;;;4958494;28;20461;-70
2021/09/17 07:37:28;;;;;;;0.50;0.50;;;15.70;99.90;;;;;;4967310;28;20514;-69
2021/09/17 07:39:55;;;;;;;0.30;0.20;;;15.60;99.90;;;;;;4975187;28;20520;-69
2021/09/17 07:42:21;;;;;;;0.33;0.33;;;15.50;99.90;;;;;;4971831;28;20495;-69
2021/09/17 07:44:50;;;;;;;0.30;0.30;;;15.40;99.90;;;;;;4974860;28;20471;-69
2021/09/17 07:47:16;;;;;;;0.80;0.27;;;15.30;99.90;;;;;;4971954;28;22132;-70
2021/09/17 07:49:43;;;;;;;0.37;0.37;;;15.40;99.90;;;;;;4955824;28;20469;-69
2021/09/17 07:52:10;;;;;;;0.30;0.30;;;15.30;99.90;;;;;;4956147;28;20564;-69
2021/09/17 07:54:36;;;;;;;0.20;0.20;;;15.40;99.90;;;;;;4974360;28;20468;-69
2021/09/17 07:57:04;;;;;;;0.37;0.37;;;15.40;99.90;;;;;;4968899;28;20456;-69
2021/09/17 07:59:31;;;;;;;0.30;0.30;;;15.40;99.90;;;;;;4958607;28;20469;-69
2021/09/17 08:01:59;;;;;;;0.40;0.40;;;15.50;99.90;;;;;;4968819;28;20518;-71
2021/09/17 08:04:25;;;;;;;0.40;0.40;;;15.60;99.90;;;;;;4956992;28;20474;-70
2021/09/17 08:06:52;;;;;;;0.30;0.30;;;15.60;99.90;;;;;;4974755;28;20566;-70
2021/09/17 08:09:18;;;;;;;0.50;0.23;;;15.70;99.90;;;;;;4961462;28;20520;-70
2021/09/17 08:11:45;;;;;;;1.23;0.30;;;15.70;99.90;;;;;;4973827;28;20496;-70
2021/09/17 08:14:12;;;;;;;1.13;0.40;;;15.70;99.90;;;;;;4966245;28;22076;-70
2021/09/17 08:16:40;;;;;;;2.23;0.30;;;15.70;99.90;;;;;;4955903;28;20967;-70
2021/09/17 08:19:08;;;;;;;0.20;0.20;;;15.70;99.90;;;;;;4971295;28;20870;-73
2021/09/17 08:21:41;;;;;;;0.43;0.43;;;15.80;99.90;;;;;;4958958;28;20848;-73
2021/09/17 08:24:13;;;;;;;0.97;0.60;;;15.80;99.90;;;;;;4971440;28;20455;-73
2021/09/17 08:26:40;;;;;;;3.70;0.63;;;15.80;99.90;;;;;;4970046;28;20512;-73
2021/09/17 08:29:07;;;;;;;0.80;0.80;;;15.90;99.90;;;;;;4954769;28;20472;-73
2021/09/17 08:31:33;;;;;;;0.40;0.40;;;16.00;99.90;;;;;;4954847;28;20588;-73
2021/09/17 08:34:00;;;;;;;0.43;0.43;;;16.10;99.90;;;;;;4954551;28;20472;-73
2021/09/17 08:36:28;;;;;;;0.40;0.40;;;16.10;99.90;;;;;;4954463;28;20950;-73
2021/09/17 08:38:55;;;;;;;0.70;0.40;;;16.10;99.90;;;;;;4954931;28;20469;-73
2021/09/17 08:41:22;;;;;;;0.60;0.60;;;16.10;99.90;;;;;;4954072;28;20485;-73
2021/09/17 08:43:48;;;;;;;0.30;0.30;;;16.10;99.90;;;;;;4953701;28;20933;-73
2021/09/17 08:46:15;;;;;;;0.47;0.47;;;16.10;99.90;;;;;;4954767;28;20489;-74
2021/09/17 08:48:43;;;;;;;0.20;0.20;;;16.10;99.90;;;;;;4954296;28;20488;-73
2021/09/17 08:51:10;;;;;;;2.23;0.30;;;16.10;99.90;;;;;;4954593;28;20965;-73
2021/09/17 08:53:38;;;;;;;0.77;0.40;;;16.10;99.90;;;;;;4954196;28;20465;-73
2021/09/17 08:56:07;;;;;;;0.30;0.30;;;16.20;99.90;;;;;;4953758;28;20519;-74
2021/09/17 08:58:34;;;;;;;0.27;0.27;;;16.30;99.90;;;;;;4956370;28;20470;-74
2021/09/17 09:01:01;;;;;;;0.70;0.30;;;16.50;99.90;;;;;;4973552;28;20507;-73
2021/09/17 09:03:30;;;;;;;0.30;0.30;;;16.70;99.90;;;;;;4973855;28;20815;-75
2021/09/17 09:06:09;;;;;;;0.80;0.50;;;16.70;99.90;;;;;;4973448;28;20460;-72
2021/09/17 09:08:38;;;;;;;0.20;0.20;;;16.60;99.90;;;;;;4974227;28;20549;-73
2021/09/17 09:11:25;;;;;;;0.20;0.20;;;16.60;99.90;;;;;;4972894;28;20598;-72
2021/09/17 09:14:00;;;;;;;0.40;0.40;;;16.60;99.90;;;;;;4972928;28;21220;-72
2021/09/17 09:16:26;;;;;;;0.20;0.20;;;16.50;99.90;;;;;;4973558;28;20467;-73
2021/09/17 09:18:53;;;;;;;0.20;0.20;;;16.40;99.90;;;;;;4973513;28;20523;-72
2021/09/17 09:21:31;;;;;;;0.40;0.40;;;16.50;99.90;;;;;;4973430;28;20487;-72
2021/09/17 09:24:14;;;;;;;0.30;0.30;;;16.70;99.90;;;;;;4973009;28;20504;-73
2021/09/17 09:26:40;;;;;;;0.30;0.30;;;16.90;99.90;;;;;;4972983;28;20495;-72
2021/09/17 09:29:25;;;;;;;0.43;0.43;;;17.10;99.90;;;;;;4973144;28;20459;-71
2021/09/17 09:31:52;;;;;;;1.43;0.30;;;17.10;99.90;;;;;;4974846;28;20495;-72
2021/09/17 09:34:21;;;;;;;0.23;0.23;;;17.20;99.90;;;;;;4977040;28;20482;-72
2021/09/17 09:36:47;;;;;;;0.20;0.20;;;17.20;99.90;;;;;;4977372;28;20464;-72
2021/09/17 09:39:15;;;;;;;0.27;0.27;;;17.30;99.90;;;;;;4977630;28;20462;-72
2021/09/17 09:41:42;;;;;;;0.80;0.30;;;17.50;99.90;;;;;;4976957;28;20518;-72
2021/09/17 09:44:14;;;;;;;0.30;0.30;;;17.50;99.90;;;;;;4976491;28;20475;-72
2021/09/17 09:46:41;;;;;;;0.33;0.33;;;17.60;99.90;;;;;;4976598;28;20562;-72
2021/09/17 09:49:18;;;;;;;2.10;0.37;;;17.70;99.90;;;;;;4977961;28;20466;-72
2021/09/17 09:51:57;;;;;;;0.37;0.33;;;17.80;99.90;;;;;;4976009;28;20540;-73
2021/09/17 09:54:26;;;;;;;0.20;0.20;;;17.80;99.90;;;;;;4975854;28;20487;-71
2021/09/17 09:56:55;;;;;;;0.73;0.20;;;17.80;99.90;;;;;;4973190;28;20456;-72
2021/09/17 09:59:24;;;;;;;0.77;0.40;;;17.70;99.90;;;;;;4958265;28;20464;-72
2021/09/17 10:01:51;;;;;;;0.80;0.80;;;17.60;99.90;;;;;;4962029;28;20487;-73
2021/09/17 10:04:20;;;;;;;1.53;0.43;;;17.60;99.90;;;;;;4958210;28;20467;-72
2021/09/17 10:06:47;;;;;;;0.50;0.50;;;17.60;99.90;;;;;;4970491;28;20487;-75
2021/09/17 10:09:14;;;;;;;0.40;0.40;;;17.60;99.90;;;;;;4962124;28;20559;-75
2021/09/17 10:11:42;;;;;;;0.20;0.20;;;17.70;99.90;;;;;;4957983;28;20492;-75
2021/09/17 10:14:12;;;;;;;0.40;0.40;;;17.60;99.90;;;;;;4969874;28;20495;-75
2021/09/17 10:16:42;;;;;;;0.23;0.23;;;17.50;99.90;;;;;;4972387;28;20460;-74
2021/09/17 10:19:09;;;;;;;0.30;0.30;;;17.40;99.90;;;;;;4962548;28;20460;-74
2021/09/17 10:21:53;;;;;;;0.43;0.43;;;17.40;99.90;;;;;;4964304;28;20489;-75
2021/09/17 10:24:35;;;;;;;0.30;0.30;;;17.40;99.90;;;;;;4968391;28;20460;-75
2021/09/17 10:27:05;;;;;;;0.93;0.30;;;17.40;99.90;;;;;;4957827;28;20505;-75
2021/09/17 10:29:34;;;;;;;0.40;0.40;;;17.40;99.90;;;;;;4962305;28;20515;-76
2021/09/17 10:32:01;;;;;;;0.30;0.30;;;17.40;99.90;;;;;;4959408;28;20562;-75
2021/09/17 10:34:36;;;;;;;0.30;0.30;;;17.40;99.90;;;;;;4957124;28;20472;-74
2021/09/17 10:37:04;;;;;;;0.53;0.30;;;17.40;99.90;;;;;;4957184;28;20456;-75
2021/09/17 10:39:31;;;;;;;0.37;0.37;;;17.40;99.90;;;;;;4961395;28;20996;-76
2021/09/17 10:42:11;;;;;;;0.30;0.30;;;17.30;99.90;;;;;;4970237;28;20561;-75
2021/09/17 10:45:16;;;;;;;0.37;0.37;;;17.30;99.90;;;;;;4974274;28;20532;-69
2021/09/17 10:47:59;;;;;;;2.33;0.40;;;17.30;99.90;;;;;;4974832;28;20483;-72
2021/09/17 10:50:39;;;;;;;0.30;0.30;;;17.30;99.90;;;;;;4975875;28;20487;-73
2021/09/17 10:53:06;;;;;;;0.30;0.30;;;17.50;99.90;;;;;;4976166;28;20472;-74
2021/09/17 10:56:05;;;;;;;0.80;0.43;;;17.70;99.90;;;;;;4975630;28;20622;-74
2021/09/17 10:58:34;;;;;;;0.40;0.40;;;17.70;99.90;;;;;;4975752;28;20937;-74
2021/09/17 11:01:02;;;;;;;0.30;0.30;;;17.80;99.90;;;;;;4975608;28;20550;-74
2021/09/17 11:03:57;;;;;;;0.30;0.30;;;17.80;99.90;;;;;;4975507;28;20466;-74
2021/09/17 11:06:29;;;;;;;0.77;0.40;;;17.80;99.90;;;;;;4975685;28;20499;-75
2021/09/17 11:08:58;;;;;;;1.47;0.30;;;17.70;99.90;;;;;;4965781;28;20488;-74
2021/09/17 11:11:27;;;;;;;0.43;0.43;;;17.60;99.90;;;;;;4966201;28;20485;-71
2021/09/17 11:13:57;;;;;;;0.60;0.60;;;17.60;99.90;;;;;;4955560;28;20531;-71
2021/09/17 11:16:26;;;;;;;0.50;0.50;;;17.50;99.90;;;;;;4966549;28;20518;-71
2021/09/17 11:18:54;;;;;;;0.40;0.40;;;17.50;99.90;;;;;;4968752;28;20471;-71
2021/09/17 11:21:23;;;;;;;0.57;0.50;;;17.40;99.90;;;;;;4958228;28;20515;-70
2021/09/17 11:23:52;;;;;;;0.43;0.43;;;17.30;99.90;;;;;;4960860;28;20461;-72
2021/09/17 11:26:20;;;;;;;1.40;0.40;;;17.20;99.90;;;;;;4958608;28;20535;-71
2021/09/17 11:28:59;;;;;;;0.30;0.30;;;17.20;99.90;;;;;;4972332;28;21112;-73
2021/09/17 11:31:31;;;;;;;0.40;0.40;;;17.20;99.90;;;;;;4957186;28;21019;-72
2021/09/17 11:34:00;;;;;;;0.30;0.30;;;17.30;99.90;;;;;;4973624;28;20452;-72
2021/09/17 11:36:40;;;;;;;0.37;0.30;;;17.20;99.90;;;;;;4974599;28;20467;-70
2021/09/17 11:39:20;;;;;;;0.83;0.40;;;17.20;99.90;;;;;;4963210;28;20542;-70
2021/09/17 11:41:49;;;;;;;0.40;0.40;;;17.20;99.90;;;;;;4966876;28;20495;-70
2021/09/17 11:44:35;;;;;;;0.40;0.40;;;17.20;99.90;;;;;;4954866;28;20921;-70
2021/09/17 11:47:03;;;;;;;0.43;0.43;;;17.20;99.90;;;;;;4969703;28;20470;-69
2021/09/17 11:49:32;;;;;;;0.20;0.20;;;17.20;99.90;;;;;;4968550;28;20457;-73
2021/09/17 11:52:03;;;;;;;0.20;0.20;;;17.30;99.90;;;;;;4955534;28;20476;-71
2021/09/17 11:54:30;;;;;;;0.30;0.30;;;17.30;99.90;;;;;;4962928;28;20456;-71
2021/09/17 11:57:05;;;;;;;0.27;0.27;;;17.40;99.90;;;;;;4955333;28;20488;-69
2021/09/17 11:59:38;;;;;;;0.77;0.30;;;17.50;99.90;;;;;;4956409;28;20468;-71
2021/09/17 12:02:12;;;;;;;0.30;0.30;;;17.70;99.90;;;;;;4963463;28;20483;-70
2021/09/17 12:04:40;;;;;;;2.40;0.33;;;17.80;99.90;;;;;;4974163;28;20542;-70
2021/09/17 12:07:07;;;;;;;1.23;1.23;;;17.80;99.90;;;;;;4961264;28;20452;-71
2021/09/17 12:09:34;;;;;;;0.37;0.37;;;18.00;99.90;;;;;;4962522;28;20584;-70
2021/09/17 12:12:00;;;;;;;0.30;0.30;;;18.20;99.90;;;;;;4973065;28;20488;-70
2021/09/17 12:14:27;;;;;;;0.30;0.30;;;18.20;99.90;;;;;;4961874;28;20930;-70
2021/09/17 12:17:02;;;;;;;0.30;0.30;;;18.10;99.90;;;;;;4958742;28;20465;-72
2021/09/17 12:19:30;;;;;;;0.20;0.20;;;18.10;99.90;;;;;;4963746;28;20542;-74
2021/09/17 12:22:01;;;;;;;0.50;0.50;;;18.00;99.90;;;;;;4974415;28;20571;-73
2021/09/17 12:24:28;;;;;;;0.40;0.37;;;17.90;99.90;;;;;;4974352;28;20624;-74
2021/09/17 12:26:57;;;;;;;0.30;0.30;;;18.00;99.90;;;;;;4974288;28;20526;-74
2021/09/17 12:29:24;;;;;;;0.30;0.30;;;18.00;99.90;;;;;;4973860;28;20464;-74
2021/09/17 12:31:51;;;;;;;0.40;0.37;;;18.10;99.90;;;;;;4974422;28;20490;-74
2021/09/17 12:34:22;;;;;;;0.50;0.50;;;18.10;99.90;;;;;;4973790;28;20475;-74
2021/09/17 12:36:51;;;;;;;0.70;0.70;;;17.90;99.90;;;;;;4973713;28;20468;-73
2021/09/17 12:39:21;;;;;;;0.40;0.40;;;17.70;99.90;;;;;;4955147;28;20879;-74
2021/09/17 12:42:04;;;;;;;0.60;0.60;;;17.40;99.90;;;;;;4954572;28;20563;-75
2021/09/17 12:44:39;;;;;;;0.60;0.60;;;17.20;99.90;;;;;;4954630;28;20464;-73
2021/09/17 12:47:05;;;;;;;0.70;0.70;;;17.10;99.90;;;;;;4954956;28;20495;-73
2021/09/17 12:49:34;;;;;;;0.60;0.60;;;17.10;99.90;;;;;;4954843;28;20887;-73
2021/09/17 12:52:00;;;;;;;0.40;0.40;;;17.20;99.90;;;;;;4964188;28;20854;-72
2021/09/17 12:54:34;;;;;;;1.10;0.70;;;17.10;99.90;;;;;;4973883;28;20470;-73
2021/09/17 12:57:12;;;;;;;0.40;0.40;;;17.10;99.90;;;;;;4973949;28;20582;-73
2021/09/17 12:59:58;;;;;;;0.57;0.57;;;17.10;99.90;;;;;;4973589;28;20545;-72
2021/09/17 13:02:24;;;;;;;0.50;0.43;;;17.20;99.90;;;;;;4973441;28;20495;-72
2021/09/17 13:04:59;;;;;;;0.50;0.50;;;17.30;99.90;;;;;;4973751;28;21003;-72
2021/09/17 13:07:26;;;;;;;0.50;0.50;;;17.40;99.90;;;;;;4973507;28;20554;-73
2021/09/17 13:09:52;;;;;;;0.60;0.60;;;17.40;99.90;;;;;;4971193;28;20518;-72
2021/09/17 13:12:19;;;;;;;1.30;0.53;;;17.50;99.90;;;;;;4953343;28;20562;-74
2021/09/17 13:14:46;;;;;;;1.67;0.60;;;17.60;99.90;;;;;;4953907;28;20465;-75
2021/09/17 13:17:13;;;;;;;0.50;0.50;;;17.60;99.90;;;;;;4954008;28;20481;-74
2021/09/17 13:19:40;;;;;;;0.40;0.40;;;17.70;99.90;;;;;;4954298;28;20468;-75
2021/09/17 13:22:08;;;;;;;0.40;0.40;;;17.70;99.90;;;;;;4953961;28;20493;-74
2021/09/17 13:24:35;;;;;;;0.60;0.60;;;17.70;99.90;;;;;;4954072;28;20465;-74
2021/09/17 13:27:01;;;;;;;0.30;0.30;;;17.90;99.90;;;;;;4953410;28;20868;-74
2021/09/17 13:29:28;;;;;;;0.87;0.33;;;18.00;99.90;;;;;;4953868;28;20868;-73
2021/09/17 13:31:55;;;;;;;0.60;0.50;;;18.00;99.90;;;;;;4953848;28;20637;-73
2021/09/17 13:34:21;;;;;;;0.43;0.43;;;17.80;99.90;;;;;;4953643;28;20473;-73
2021/09/17 13:36:48;;;;;;;1.20;0.50;;;17.70;99.90;;;;;;4953867;28;20523;-73
2021/09/17 13:39:16;;;;;;;1.13;0.67;;;17.50;99.90;;;;;;4953715;28;20469;-74
2021/09/17 13:41:43;;;;;;;0.60;0.60;;;17.40;99.90;;;;;;4953166;28;20812;-73
2021/09/17 13:44:09;;;;;;;0.50;0.50;;;17.40;99.90;;;;;;4953209;28;20472;-73
2021/09/17 13:46:36;;;;;;;1.23;0.70;;;17.40;99.90;;;;;;4953773;28;20471;-74
2021/09/17 13:49:04;;;;;;;0.77;0.77;;;17.50;99.90;;;;;;4953649;28;20618;-73
2021/09/17 13:51:30;;;;;;;0.60;0.60;;;17.50;99.90;;;;;;4959047;28;20893;-73
2021/09/17 13:53:57;;;;;;;0.43;0.43;;;17.50;99.90;;;;;;4972338;28;20522;-74
2021/09/17 13:56:25;;;;;;;1.70;0.47;;;17.50;99.90;;;;;;4972707;28;20460;-74
2021/09/17 13:58:52;;;;;;;0.40;0.40;;;17.60;99.90;;;;;;4972908;28;20471;-74
2021/09/17 14:01:19;;;;;;;0.20;0.20;;;17.50;99.90;;;;;;4972765;28;20545;-74
2021/09/17 14:03:46;;;;;;;1.23;0.30;;;17.60;99.90;;;;;;4972942;28;20489;-74
2021/09/17 14:06:13;;;;;;;0.40;0.40;;;17.60;99.90;;;;;;4973216;28;20507;-74
2021/09/17 14:08:39;;;;;;;0.30;0.30;;;17.50;99.90;;;;;;4972890;28;20491;-73
2021/09/17 14:11:06;;;;;;;0.40;0.40;;;17.40;99.90;;;;;;4970209;28;20491;-74
2021/09/17 14:13:36;;;;;;;0.50;0.50;;;17.30;99.90;;;;;;4964154;28;20473;-74
2021/09/17 14:16:03;;;;;;;0.97;0.50;;;17.20;99.90;;;;;;4954647;28;20459;-73
2021/09/17 14:18:30;;;;;;;1.20;0.30;;;17.10;99.90;;;;;;4959275;28;20452;-75
2021/09/17 14:20:57;;;;;;;0.43;0.40;;;17.00;99.90;;;;;;4974402;28;20909;-74
2021/09/17 14:23:23;;;;;;;0.40;0.40;;;17.00;99.90;;;;;;4976287;28;20467;-73
2021/09/17 14:25:50;;;;;;;0.40;0.40;;;17.00;99.90;;;;;;4960012;28;20519;-74
2021/09/17 14:28:17;;;;;;;0.50;0.50;;;17.00;99.90;;;;;;4957348;28;20624;-75
2021/09/17 14:30:47;;;;;;;0.40;0.40;;;16.90;99.90;;;;;;4968409;28;20803;-73
2021/09/17 14:33:13;;;;;;;0.50;0.50;;;16.80;99.90;;;;;;4974057;28;20531;-74
2021/09/17 14:35:42;;;;;;;0.80;0.50;;;16.80;99.90;;;;;;4959063;28;20523;-75
2021/09/17 14:38:09;;;;;;;0.30;0.30;;;16.80;99.90;;;;;;4960487;28;20467;-75
2021/09/17 14:40:38;;;;;;;0.50;0.50;;;16.90;99.90;;;;;;4976373;28;20479;-77
2021/09/17 14:43:05;;;;;;;0.30;0.30;;;16.90;99.90;;;;;;4960294;28;20480;-73
2021/09/17 14:45:32;;;;;;;0.40;0.40;;;16.90;99.90;;;;;;4967919;28;20473;-74
2021/09/17 14:47:59;;;;;;;0.50;0.50;;;16.80;99.90;;;;;;4958168;28;20465;-73
2021/09/17 14:50:26;;;;;;;1.50;0.40;;;16.70;99.90;;;;;;4975980;28;20538;-73
2021/09/17 14:52:53;;;;;;;0.60;0.60;;;16.70;99.90;;;;;;4973524;28;20467;-73
2021/09/17 14:55:20;;;;;;;0.83;0.50;;;16.60;99.90;;;;;;4959278;28;20962;-74
2021/09/17 14:57:46;;;;;;;1.47;0.47;;;16.60;99.90;;;;;;4958401;28;20946;-74
2021/09/17 15:00:14;;;;;;;0.57;0.57;;;16.60;99.90;;;;;;4975612;28;20530;-75
2021/09/17 15:02:40;;;;;;;0.63;0.40;;;16.60;99.90;;;;;;4975772;28;20482;-74
2021/09/17 15:05:09;;;;;;;0.30;0.30;;;16.70;99.90;;;;;;4971753;28;20539;-74
2021/09/17 15:07:36;;;;;;;0.67;0.23;;;16.70;99.90;;;;;;4956884;28;20531;-74
2021/09/17 15:10:03;;;;;;;0.67;0.67;;;16.70;99.90;;;;;;4970616;28;20547;-74
2021/09/17 15:12:29;;;;;;;0.50;0.50;;;16.70;99.90;;;;;;4955684;28;21020;-73
2021/09/17 15:14:56;;;;;;;0.40;0.40;;;16.60;99.90;;;;;;4959454;28;20538;-75
2021/09/17 15:17:23;;;;;;;0.63;0.47;;;16.60;99.90;;;;;;4975225;28;20836;-74
2021/09/17 15:19:49;;;;;;;0.50;0.50;;;16.60;99.90;;;;;;4974927;28;20879;-75
2021/09/17 15:22:18;;;;;;;0.40;0.40;;;16.60;99.90;;;;;;4975493;28;20515;-74
2021/09/17 15:24:44;;;;;;;0.40;0.40;;;16.60;99.90;;;;;;4968510;28;20527;-74
2021/09/17 15:27:11;;;;;;;0.57;0.30;;;16.60;99.90;;;;;;4984117;28;20465;-73
2021/09/17 15:29:38;;;;;;;0.30;0.30;;;16.60;99.90;;;;;;4978525;28;20507;-75
2021/09/17 15:32:05;;;;;;;0.57;0.30;;;16.60;99.90;;;;;;4979601;28;20491;-75
2021/09/17 15:34:32;;;;;;;1.10;0.30;;;16.60;99.90;;;;;;4982961;28;20460;-76
2021/09/17 15:36:58;;;;;;;0.90;0.70;;;16.50;99.90;;;;;;4965201;28;20523;-75
2021/09/17 15:39:26;;;;;;;0.60;0.60;;;16.50;99.90;;;;;;4974093;28;20459;-73
2021/09/17 15:41:54;;;;;;;0.40;0.40;;;16.50;99.90;;;;;;4971593;28;20480;-73
2021/09/17 15:44:20;;;;;;;0.83;0.50;;;16.50;99.90;;;;;;4971342;28;20463;-72
2021/09/17 15:46:47;;;;;;;0.50;0.50;;;16.50;99.90;;;;;;4969210;28;20496;-73
2021/09/17 15:49:14;;;;;;;0.63;0.40;;;16.50;99.90;;;;;;4984829;28;20503;-75
2021/09/17 15:51:40;;;;;;;0.83;0.67;;;16.50;99.90;;;;;;4973349;28;20507;-73
2021/09/17 15:54:07;;;;;;;0.30;0.30;;;16.50;99.90;;;;;;4972487;28;20554;-73
2021/09/17 15:56:35;;;;;;;0.40;0.40;;;16.60;99.90;;;;;;4969576;28;20832;-71
2021/09/17 15:59:02;;;;;;;0.23;0.23;;;16.60;99.90;;;;;;4971050;28;21108;-72
2021/09/17 16:01:29;;;;;;;0.50;0.50;;;16.60;99.90;;;;;;4962519;28;20542;-74
2021/09/17 16:03:55;;;;;;;0.40;0.40;;;16.60;99.90;;;;;;4963397;28;20457;-72
2021/09/17 16:06:23;;;;;;;0.47;0.47;;;16.60;99.90;;;;;;4954901;28;20468;-71
2021/09/17 16:08:50;;;;;;;0.57;0.57;;;16.60;99.90;;;;;;4954996;28;20856;-72
2021/09/17 16:11:17;;;;;;;0.40;0.30;;;16.50;99.90;;;;;;4960375;28;20571;-73
2021/09/17 16:13:46;;;;;;;0.47;0.30;;;16.50;99.90;;;;;;4972733;28;20467;-72
2021/09/17 16:16:13;;;;;;;0.47;0.47;;;16.50;99.90;;;;;;4973652;28;20544;-72
2021/09/17 16:18:40;;;;;;;0.50;0.50;;;16.40;99.90;;;;;;4972396;28;20972;-71
2021/09/17 16:21:08;;;;;;;0.50;0.50;;;16.40;99.90;;;;;;4969087;28;20488;-71
2021/09/17 16:23:35;;;;;;;0.80;0.70;;;16.40;99.90;;;;;;4966575;28;20456;-71
2021/09/17 16:26:02;;;;;;;0.70;0.70;;;16.40;99.90;;;;;;4970619;28;20460;-71
2021/09/17 16:28:29;;;;;;;1.50;0.30;;;16.40;99.90;;;;;;4973582;28;20479;-73
2021/09/17 16:30:58;;;;;;;0.40;0.40;;;16.30;99.90;;;;;;4973055;28;20487;-71
2021/09/17 16:33:24;;;;;;;0.60;0.60;;;16.30;99.90;;;;;;4973221;28;20468;-71
2021/09/17 16:35:51;;;;;;;0.80;0.80;;;16.30;99.90;;;;;;4973649;28;20610;-71
2021/09/17 16:38:18;;;;;;;0.60;0.60;;;16.30;99.90;;;;;;4964493;28;20503;-71
2021/09/17 16:40:45;;;;;;;0.40;0.40;;;16.30;99.90;;;;;;4971972;28;20554;-71
2021/09/17 16:43:12;;;;;;;2.00;0.57;;;16.20;99.90;;;;;;4972596;28;20460;-72
2021/09/17 16:45:38;;;;;;;0.43;0.43;;;16.20;99.90;;;;;;4966567;28;20465;-72
2021/09/17 16:48:07;;;;;;;0.43;0.43;;;16.30;99.90;;;;;;4966399;28;20476;-72
2021/09/17 16:50:33;;;;;;;0.30;0.30;;;16.10;99.90;;;;;;4957500;28;20500;-72
2021/09/17 16:53:00;;;;;;;0.40;0.40;;;16.10;99.90;;;;;;4968239;28;20468;-71
2021/09/17 16:55:27;;;;;;;0.47;0.47;;;16.10;99.90;;;;;;4963057;28;20459;-71